createdAt,value
2018-05-13T00:02:13.221Z,16.23
2018-05-13T00:04:42.183Z,16.53
2018-05-13T00:07:10.379Z,16.27
2018-05-13T00:09:38.703Z,15.77
2018-05-13T00:12:07.207Z,16.90
2018-05-13T00:14:35.689Z,15.03
2018-05-13T00:17:03.842Z,16.27
2018-05-13T00:19:32.257Z,14.97
2018-05-13T00:22:00.169Z,15.30
2018-05-13T00:24:28.720Z,14.57
2018-05-13T00:26:56.884Z,15.87
2018-05-13T00:29:25.305Z,15.37
2018-05-13T00:31:53.563Z,15.30
2018-05-13T00:34:22.728Z,15.27
2018-05-13T00:36:51.122Z,15.80
2018-05-13T00:39:19.493Z,15.47
2018-05-13T00:41:48.862Z,15.70
2018-05-13T00:44:17.218Z,15.40
2018-05-13T00:46:46.752Z,15.00
2018-05-13T00:49:14.630Z,15.60
2018-05-13T00:51:43.107Z,15.80
2018-05-13T00:54:22.754Z,15.47
2018-05-13T00:56:50.616Z,15.00
2018-05-13T00:59:19.113Z,15.20
2018-05-13T01:01:47.201Z,15.13
2018-05-13T01:04:16.165Z,15.10
2018-05-13T01:06:44.552Z,15.60
2018-05-13T01:09:13.240Z,15.43
2018-05-13T01:11:42.199Z,15.13
2018-05-13T01:14:10.397Z,15.70
2018-05-13T01:16:38.898Z,14.73
2018-05-13T01:19:07.589Z,15.10
2018-05-13T01:21:36.465Z,15.03
2018-05-13T01:24:04.619Z,14.30
2018-05-13T01:26:32.692Z,14.63
2018-05-13T01:29:00.962Z,15.23
2018-05-13T01:31:29.145Z,14.83
2018-05-13T01:33:56.991Z,15.37
2018-05-13T01:36:25.386Z,14.87
2018-05-13T01:38:53.786Z,16.00
2018-05-13T01:41:21.832Z,14.53
2018-05-13T01:43:49.915Z,14.73
2018-05-13T01:46:17.781Z,15.30
2018-05-13T01:48:45.956Z,14.80
2018-05-13T01:51:14.339Z,14.50
2018-05-13T01:53:42.936Z,15.10
2018-05-13T01:56:12.027Z,13.73
2018-05-13T01:58:40.985Z,14.10
2018-05-13T02:01:09.377Z,14.63
2018-05-13T02:03:37.444Z,15.13
2018-05-13T02:06:05.321Z,14.80
2018-05-13T02:08:33.464Z,15.23
2018-05-13T02:11:01.558Z,14.67
2018-05-13T02:13:29.510Z,15.67
2018-05-13T02:15:57.965Z,14.70
2018-05-13T02:18:25.870Z,15.00
2018-05-13T02:20:54.255Z,15.43
2018-05-13T02:23:22.116Z,16.67
2018-05-13T02:25:50.388Z,15.17
2018-05-13T02:28:19.422Z,14.83
2018-05-13T02:30:48.375Z,15.60
2018-05-13T02:33:16.654Z,16.23
2018-05-13T02:35:45.019Z,15.00
2018-05-13T02:38:13.310Z,15.10
2018-05-13T02:40:41.174Z,15.83
2018-05-13T02:43:09.303Z,14.83
2018-05-13T02:45:37.432Z,13.83
2018-05-13T02:48:05.712Z,16.57
2018-05-13T02:50:34.709Z,14.43
2018-05-13T02:53:03.904Z,15.07
2018-05-13T02:55:31.956Z,15.33
2018-05-13T02:58:00.633Z,15.27
2018-05-13T03:00:29.597Z,15.00
2018-05-13T03:02:58.510Z,14.50
2018-05-13T03:05:26.387Z,15.10
2018-05-13T03:07:54.454Z,14.37
2018-05-13T03:10:22.731Z,15.50
2018-05-13T03:12:51.232Z,13.80
2018-05-13T03:15:20.261Z,14.70
2018-05-13T03:17:49.610Z,14.73
2018-05-13T03:20:17.778Z,14.43
2018-05-13T03:22:46.058Z,15.30
2018-05-13T03:25:14.302Z,14.57
2018-05-13T03:27:42.735Z,15.47
2018-05-13T03:30:12.335Z,14.80
2018-05-13T03:32:41.208Z,13.87
2018-05-13T03:35:09.767Z,14.80
2018-05-13T03:37:38.073Z,16.17
2018-05-13T03:40:06.358Z,15.33
2018-05-13T03:42:34.212Z,14.10
2018-05-13T03:45:02.076Z,16.70
2018-05-13T03:47:30.249Z,13.90
2018-05-13T03:50:00.167Z,15.20
2018-05-13T03:52:28.235Z,15.67
2018-05-13T03:54:58.250Z,15.40
2018-05-13T03:57:27.144Z,14.13
2018-05-13T03:59:55.230Z,14.93
2018-05-13T04:02:23.894Z,15.30
2018-05-13T04:04:53.516Z,15.73
2018-05-13T04:07:21.863Z,15.57
2018-05-13T04:10:01.782Z,15.07
2018-05-13T04:12:41.985Z,14.80
2018-05-13T04:15:24.093Z,14.40
2018-05-13T04:17:52.056Z,15.33
2018-05-13T04:20:20.237Z,14.80
2018-05-13T04:22:48.528Z,13.43
2018-05-13T04:25:17.489Z,14.17
2018-05-13T04:27:45.672Z,14.63
2018-05-13T04:30:13.912Z,13.50
2018-05-13T04:32:42.916Z,12.80
2018-05-13T04:35:11.519Z,14.00
2018-05-13T04:37:39.861Z,14.13
2018-05-13T04:40:08.394Z,13.07
2018-05-13T04:42:36.320Z,13.53
2018-05-13T04:45:04.422Z,12.93
2018-05-13T04:47:32.406Z,14.57
2018-05-13T04:50:00.478Z,13.80
2018-05-13T04:52:29.375Z,13.70
2018-05-13T04:54:58.032Z,15.30
2018-05-13T04:57:26.306Z,14.50
2018-05-13T04:59:54.688Z,14.10
2018-05-13T05:02:22.769Z,14.63
2018-05-13T05:04:50.929Z,13.47
2018-05-13T05:07:19.250Z,14.67
2018-05-13T05:09:47.492Z,13.83
2018-05-13T05:12:15.857Z,15.30
2018-05-13T05:14:45.185Z,13.67
2018-05-13T05:17:13.949Z,15.87
2018-05-13T05:19:41.904Z,15.00
2018-05-13T05:22:10.932Z,15.07
2018-05-13T05:24:38.934Z,14.13
2018-05-13T05:27:07.105Z,14.33
2018-05-13T05:29:35.735Z,15.90
2018-05-13T05:32:04.127Z,13.80
2018-05-13T05:34:32.418Z,13.60
2018-05-13T05:37:01.902Z,14.27
2018-05-13T05:39:29.977Z,16.17
2018-05-13T05:41:58.056Z,15.83
2018-05-13T05:44:27.296Z,16.33
2018-05-13T05:46:56.415Z,14.37
2018-05-13T05:49:24.400Z,15.17
2018-05-13T05:51:52.681Z,14.17
2018-05-13T05:54:21.378Z,14.03
2018-05-13T05:56:50.456Z,14.47
2018-05-13T05:59:18.758Z,15.10
2018-05-13T06:01:49.126Z,15.70
2018-05-13T06:04:17.545Z,15.77
2018-05-13T06:06:46.432Z,15.60
2018-05-13T06:09:14.953Z,15.70
2018-05-13T06:11:43.401Z,16.40
2018-05-13T06:14:11.868Z,14.80
2018-05-13T06:16:41.561Z,16.80
2018-05-13T06:19:09.551Z,15.37
2018-05-13T06:21:38.529Z,16.23
2018-05-13T06:24:07.049Z,14.40
2018-05-13T06:26:36.231Z,18.00
2018-05-13T06:29:04.588Z,17.00
2018-05-13T06:31:33.080Z,15.20
2018-05-13T06:34:01.264Z,14.90
2018-05-13T06:36:29.505Z,16.03
2018-05-13T06:38:58.345Z,15.63
2018-05-13T06:41:26.584Z,14.97
2018-05-13T06:43:55.584Z,15.23
2018-05-13T06:46:23.984Z,14.70
2018-05-13T06:48:52.960Z,15.17
2018-05-13T06:51:21.342Z,13.97
2018-05-13T06:53:50.145Z,14.50
2018-05-13T06:56:19.633Z,14.90
2018-05-13T06:58:48.025Z,13.53
2018-05-13T07:01:18.569Z,13.70
2018-05-13T07:03:47.640Z,13.27
2018-05-13T07:06:16.033Z,14.53
2018-05-13T07:08:45.225Z,14.53
2018-05-13T07:11:14.233Z,13.70
2018-05-13T07:13:43.403Z,13.27
2018-05-13T07:16:12.904Z,14.10
2018-05-13T07:18:41.241Z,13.23
2018-05-13T07:21:09.761Z,14.30
2018-05-13T07:23:37.946Z,14.20
2018-05-13T07:26:06.033Z,14.57
2018-05-13T07:28:35.430Z,14.40
2018-05-13T07:31:04.825Z,14.10
2018-05-13T07:33:33.106Z,13.33
2018-05-13T07:36:02.187Z,15.50
2018-05-13T07:38:32.025Z,14.10
2018-05-13T07:41:00.787Z,15.00
2018-05-13T07:43:29.678Z,14.20
2018-05-13T07:45:57.961Z,15.17
2018-05-13T07:48:27.455Z,13.67
2018-05-13T07:50:57.127Z,13.90
2018-05-13T07:53:25.649Z,14.97
2018-05-13T07:55:54.454Z,14.50
2018-05-13T07:58:23.523Z,14.13
2018-05-13T08:00:51.805Z,14.70
2018-05-13T08:03:20.585Z,13.70
2018-05-13T08:05:49.306Z,14.20
2018-05-13T08:08:18.089Z,13.97
2018-05-13T08:10:46.953Z,13.90
2018-05-13T08:13:15.553Z,13.40
2018-05-13T08:15:44.753Z,12.30
2018-05-13T08:18:13.750Z,12.30
2018-05-13T08:20:42.945Z,12.33
2018-05-13T08:23:12.233Z,13.10
2018-05-13T08:25:40.552Z,12.80
2018-05-13T08:28:10.001Z,12.57
2018-05-13T08:30:38.713Z,13.20
2018-05-13T08:33:08.489Z,13.10
2018-05-13T08:35:37.529Z,13.37
2018-05-13T08:38:05.792Z,12.60
2018-05-13T08:40:34.677Z,12.20
2018-05-13T08:43:03.665Z,13.70
2018-05-13T08:45:32.865Z,12.45
2018-05-13T08:48:02.354Z,11.73
2018-05-13T08:50:30.518Z,11.20
2018-05-13T08:52:59.105Z,13.20
2018-05-13T08:55:27.412Z,10.80
2018-05-13T08:57:56.894Z,10.70
2018-05-13T09:00:25.569Z,9.50
2018-05-13T09:02:53.970Z,10.07
2018-05-13T09:05:23.265Z,11.17
2018-05-13T09:07:52.593Z,11.80
2018-05-13T09:10:22.369Z,10.43
2018-05-13T09:12:50.529Z,10.60
2018-05-13T09:15:18.713Z,10.83
2018-05-13T09:17:46.985Z,10.73
2018-05-13T09:20:15.433Z,10.80
2018-05-13T09:22:43.677Z,11.10
2018-05-13T09:25:12.525Z,9.82
2018-05-13T09:27:41.001Z,10.57
2018-05-13T09:30:11.722Z,10.40
2018-05-13T09:32:40.425Z,9.60
2018-05-13T09:35:08.733Z,9.60
2018-05-13T09:37:37.403Z,9.93
2018-05-13T09:40:05.866Z,9.00
2018-05-13T09:42:34.041Z,10.27
2018-05-13T09:45:02.732Z,9.73
2018-05-13T09:47:31.113Z,10.13
2018-05-13T09:50:00.601Z,9.13
2018-05-13T09:52:31.354Z,9.02
2018-05-13T09:55:00.666Z,9.57
2018-05-13T09:57:29.849Z,9.40
2018-05-13T09:59:59.473Z,9.43
2018-05-13T10:02:28.713Z,9.48
2018-05-13T10:04:57.131Z,9.00
2018-05-13T10:07:25.633Z,8.98
2018-05-13T10:09:55.254Z,8.85
2018-05-13T10:12:23.505Z,9.02
2018-05-13T10:14:53.001Z,9.45
2018-05-13T10:17:21.280Z,9.65
2018-05-13T10:19:49.552Z,9.20
2018-05-13T10:22:17.953Z,11.02
2018-05-13T10:24:47.236Z,10.23
2018-05-13T10:27:15.770Z,9.50
2018-05-13T10:29:44.193Z,9.15
2018-05-13T10:32:12.347Z,9.82
2018-05-13T10:34:40.873Z,10.65
2018-05-13T10:37:09.646Z,10.55
2018-05-13T10:39:39.034Z,9.40
2018-05-13T10:42:07.529Z,9.23
2018-05-13T10:44:36.728Z,9.00
2018-05-13T10:47:06.116Z,9.73
2018-05-13T10:49:34.609Z,9.65
2018-05-13T10:52:04.113Z,8.85
2018-05-13T10:54:32.999Z,8.52
2018-05-13T10:57:02.281Z,8.73
2018-05-13T10:59:30.569Z,8.95
2018-05-13T11:01:59.354Z,9.10
2018-05-13T11:04:28.121Z,8.65
2018-05-13T11:06:56.585Z,8.60
2018-05-13T11:09:24.904Z,8.50
2018-05-13T11:11:53.081Z,8.68
2018-05-13T11:14:21.313Z,8.52
2018-05-13T11:16:49.425Z,8.50
2018-05-13T11:19:19.108Z,8.50
2018-05-13T11:21:47.593Z,8.80
2018-05-13T11:24:17.002Z,8.05
2018-05-13T11:26:45.334Z,8.07
2018-05-13T11:29:14.409Z,7.78
2018-05-13T11:31:43.177Z,7.45
2018-05-13T11:34:12.773Z,7.82
2018-05-13T11:36:41.194Z,8.30
2018-05-13T11:39:09.873Z,8.35
2018-05-13T11:41:39.161Z,10.68
2018-05-13T11:44:09.153Z,9.57
2018-05-13T11:46:39.452Z,9.20
2018-05-13T11:49:08.470Z,9.65
2018-05-13T11:51:37.368Z,10.20
2018-05-13T11:54:06.169Z,9.67
2018-05-13T11:56:35.281Z,10.17
2018-05-13T11:59:04.265Z,9.30
2018-05-13T12:01:33.433Z,8.80
2018-05-13T12:04:02.242Z,8.93
2018-05-13T12:06:31.561Z,8.83
2018-05-13T12:08:59.720Z,9.88
2018-05-13T12:11:28.626Z,9.90
2018-05-13T12:13:58.105Z,9.93
2018-05-13T12:16:27.385Z,9.68
2018-05-13T12:18:55.673Z,10.45
2018-05-13T12:21:24.051Z,10.40
2018-05-13T12:23:52.425Z,9.53
2018-05-13T12:26:20.717Z,8.57
2018-05-13T12:28:49.118Z,9.90
2018-05-13T12:31:17.841Z,10.18
2018-05-13T12:33:46.289Z,8.63
2018-05-13T12:36:14.841Z,9.55
2018-05-13T12:38:43.604Z,9.80
2018-05-13T12:41:13.655Z,9.30
2018-05-13T12:43:42.931Z,10.18
2018-05-13T12:46:11.106Z,9.93
2018-05-13T12:48:40.320Z,9.85
2018-05-13T12:51:09.209Z,10.85
2018-05-13T12:53:39.104Z,10.37
2018-05-13T12:56:07.489Z,9.23
2018-05-13T12:58:36.283Z,10.63
2018-05-13T13:01:05.665Z,9.87
2018-05-13T13:03:34.361Z,10.13
2018-05-13T13:06:02.840Z,9.50
2018-05-13T13:08:31.128Z,10.13
2018-05-13T13:11:00.233Z,10.40
2018-05-13T13:13:30.024Z,10.70
2018-05-13T13:15:58.312Z,10.37
2018-05-13T13:18:27.291Z,10.33
2018-05-13T13:20:56.001Z,10.63
2018-05-13T13:23:25.185Z,10.83
2018-05-13T13:25:53.743Z,11.60
2018-05-13T13:28:22.624Z,10.37
2018-05-13T13:30:51.644Z,10.13
2018-05-13T13:33:20.201Z,9.90
2018-05-13T13:35:48.608Z,9.70
2018-05-13T13:38:17.881Z,10.23
2018-05-13T13:40:46.361Z,10.40
2018-05-13T13:43:14.761Z,11.20
2018-05-13T13:45:42.945Z,10.27
2018-05-13T13:48:12.145Z,10.90
2018-05-13T13:50:41.233Z,10.07
2018-05-13T13:53:09.409Z,11.20
2018-05-13T13:55:38.065Z,11.40
2018-05-13T13:58:06.361Z,10.33
2018-05-13T14:00:34.555Z,11.43
2018-05-13T14:03:03.520Z,11.10
2018-05-13T14:05:31.809Z,10.80
2018-05-13T14:08:00.310Z,11.10
2018-05-13T14:10:28.841Z,10.50
2018-05-13T14:12:57.154Z,10.50
2018-05-13T14:15:25.793Z,9.97
2018-05-13T14:17:54.402Z,10.40
2018-05-13T14:20:22.922Z,10.70
2018-05-13T14:22:52.314Z,10.50
2018-05-13T14:25:21.609Z,11.07
2018-05-13T14:27:49.547Z,10.90
2018-05-13T14:30:17.674Z,10.60
2018-05-13T14:32:46.026Z,11.20
2018-05-13T14:35:14.193Z,10.77
2018-05-13T14:37:42.751Z,11.90
2018-05-13T14:40:11.169Z,11.87
2018-05-13T14:42:40.769Z,11.73
2018-05-13T14:45:10.018Z,10.63
2018-05-13T14:47:38.630Z,10.40
2018-05-13T14:50:07.433Z,9.90
2018-05-13T14:52:36.009Z,10.13
2018-05-13T14:55:04.249Z,9.90
2018-05-13T14:57:33.756Z,9.97
2018-05-13T15:00:02.363Z,9.83
2018-05-13T15:02:30.793Z,10.13
2018-05-13T15:04:59.374Z,11.40
2018-05-13T15:07:32.249Z,10.60
2018-05-13T15:10:02.049Z,22.90
2018-05-13T15:12:31.441Z,12.83
2018-05-13T15:15:00.017Z,11.70
2018-05-13T15:17:28.313Z,10.43
2018-05-13T15:19:57.609Z,11.10
2018-05-13T15:22:32.342Z,10.60
2018-05-13T15:25:00.953Z,11.67
2018-05-13T15:27:29.600Z,10.03
2018-05-13T15:29:58.961Z,10.60
2018-05-13T15:32:28.465Z,11.03
2018-05-13T15:34:56.849Z,11.63
2018-05-13T15:37:25.025Z,10.73
2018-05-13T15:39:53.330Z,11.03
2018-05-13T15:42:21.585Z,11.10
2018-05-13T15:44:49.988Z,10.70
2018-05-13T15:47:19.394Z,12.07
2018-05-13T15:49:49.409Z,10.97
2018-05-13T15:52:18.512Z,10.43
2018-05-13T15:54:48.155Z,11.93
2018-05-13T15:57:16.468Z,11.10
2018-05-13T15:59:44.672Z,11.97
2018-05-13T16:02:13.991Z,11.33
2018-05-13T16:04:42.544Z,10.87
2018-05-13T16:07:11.424Z,10.70
2018-05-13T16:09:40.185Z,11.50
2018-05-13T16:12:09.471Z,10.43
2018-05-13T16:14:37.785Z,11.10
2018-05-13T16:17:06.168Z,10.90
2018-05-13T16:19:34.561Z,10.70
2018-05-13T16:22:03.963Z,13.60
2018-05-13T16:24:32.841Z,9.83
2018-05-13T16:27:00.873Z,10.67
2018-05-13T16:29:29.464Z,11.83
2018-05-13T16:31:58.841Z,12.20
2018-05-13T16:34:27.706Z,11.80
2018-05-13T16:36:56.888Z,12.10
2018-05-13T16:39:25.994Z,12.30
2018-05-13T16:41:54.873Z,11.47
2018-05-13T16:44:23.851Z,12.10
2018-05-13T16:46:51.928Z,10.63
2018-05-13T16:49:20.312Z,11.87
2018-05-13T16:51:49.722Z,11.10
2018-05-13T16:54:19.225Z,10.90
2018-05-13T16:56:48.313Z,11.90
2018-05-13T16:59:17.403Z,11.50
2018-05-13T17:01:45.689Z,11.33
2018-05-13T17:04:15.330Z,11.07
2018-05-13T17:06:44.089Z,10.77
2018-05-13T17:09:14.755Z,11.70
2018-05-13T17:11:43.091Z,9.83
2018-05-13T17:14:12.671Z,10.80
2018-05-13T17:16:40.875Z,11.10
2018-05-13T17:19:10.256Z,10.30
2018-05-13T17:21:38.970Z,10.30
2018-05-13T17:24:08.347Z,10.00
2018-05-13T17:26:36.825Z,9.87
2018-05-13T17:29:05.387Z,9.70
2018-05-13T17:31:33.628Z,10.57
2018-05-13T17:34:02.073Z,16.20
2018-05-13T17:36:30.425Z,14.43
2018-05-13T17:38:59.145Z,11.83
2018-05-13T17:41:28.235Z,10.60
2018-05-13T17:43:56.412Z,12.67
2018-05-13T17:46:25.601Z,14.70
2018-05-13T17:48:53.784Z,10.90
2018-05-13T17:51:23.199Z,12.20
2018-05-13T17:53:52.492Z,11.70
2018-05-13T17:56:25.481Z,12.57
2018-05-13T17:58:54.681Z,12.80
2018-05-13T18:01:24.361Z,11.63
2018-05-13T18:03:52.953Z,12.30
2018-05-13T18:06:21.358Z,11.50
2018-05-13T18:08:50.649Z,11.13
2018-05-13T18:11:19.625Z,10.73
2018-05-13T18:13:48.825Z,11.10
2018-05-13T18:16:17.305Z,12.20
2018-05-13T18:18:46.312Z,12.47
2018-05-13T18:21:15.609Z,12.77
2018-05-13T18:23:44.921Z,13.17
2018-05-13T18:26:13.193Z,13.07
2018-05-13T18:28:42.649Z,11.10
2018-05-13T18:31:11.568Z,11.40
2018-05-13T18:33:41.642Z,12.90
2018-05-13T18:36:12.925Z,13.40
2018-05-13T18:38:41.610Z,12.43
2018-05-13T18:41:10.604Z,11.30
2018-05-13T18:43:39.289Z,11.77
2018-05-13T18:46:09.146Z,11.37
2018-05-13T18:48:38.791Z,11.90
2018-05-13T18:51:08.985Z,11.60
2018-05-13T18:53:39.192Z,11.87
2018-05-13T18:56:09.209Z,11.20
2018-05-13T18:58:37.353Z,12.87
2018-05-13T19:01:08.649Z,11.73
2018-05-13T19:03:40.873Z,11.60
2018-05-13T19:06:13.166Z,12.97
2018-05-13T19:08:42.073Z,12.63
2018-05-13T19:11:10.313Z,11.23
2018-05-13T19:13:39.593Z,11.73
2018-05-13T19:16:15.658Z,11.70
2018-05-13T19:18:45.324Z,12.37
2018-05-13T19:21:14.951Z,11.90
2018-05-13T19:23:43.481Z,12.93
2018-05-13T19:26:12.841Z,14.40
2018-05-13T19:28:42.313Z,14.00
2018-05-13T19:31:11.689Z,13.57
2018-05-13T19:33:40.351Z,15.37
2018-05-13T19:36:12.394Z,14.70
2018-05-13T19:38:42.338Z,14.63
2018-05-13T19:41:11.929Z,15.83
2018-05-13T19:43:41.129Z,15.00
2018-05-13T19:46:10.505Z,15.80
2018-05-13T19:48:39.019Z,15.93
2018-05-13T19:51:07.386Z,14.73
2018-05-13T19:53:35.673Z,14.90
2018-05-13T19:56:04.971Z,13.90
2018-05-13T19:58:34.441Z,15.40
2018-05-13T20:01:03.149Z,14.73
2018-05-13T20:03:31.535Z,15.63
2018-05-13T20:06:00.209Z,16.13
2018-05-13T20:08:28.467Z,15.10
2018-05-13T20:10:57.058Z,13.30
2018-05-13T20:13:26.572Z,14.70
2018-05-13T20:15:56.724Z,14.37
2018-05-13T20:18:25.262Z,15.30
2018-05-13T20:20:53.662Z,14.93
2018-05-13T20:23:26.171Z,15.27
2018-05-13T20:25:54.729Z,13.20
2018-05-13T20:28:24.013Z,14.00
2018-05-13T20:30:52.303Z,13.90
2018-05-13T20:33:22.103Z,13.93
2018-05-13T20:35:50.575Z,13.07
2018-05-13T20:38:18.901Z,13.90
2018-05-13T20:40:47.401Z,14.67
2018-05-13T20:43:15.623Z,13.57
2018-05-13T20:45:44.815Z,12.97
2018-05-13T20:48:12.882Z,12.03
2018-05-13T20:50:41.473Z,14.37
2018-05-13T20:53:09.940Z,14.60
2018-05-13T20:55:38.420Z,13.67
2018-05-13T20:58:07.121Z,12.90
2018-05-13T21:00:35.573Z,14.60
2018-05-13T21:03:04.175Z,13.70
2018-05-13T21:05:33.806Z,13.00
2018-05-13T21:08:03.218Z,13.90
2018-05-13T21:10:31.496Z,13.33
2018-05-13T21:13:01.392Z,13.30
2018-05-13T21:15:30.740Z,13.77
2018-05-13T21:17:59.057Z,13.80
2018-05-13T21:20:27.538Z,14.50
2018-05-13T21:22:55.940Z,14.90
2018-05-13T21:25:24.797Z,15.10
2018-05-13T21:27:53.496Z,15.20
2018-05-13T21:30:22.063Z,14.87
2018-05-13T21:32:50.557Z,14.17
2018-05-13T21:35:19.971Z,14.17
2018-05-13T21:37:49.345Z,14.57
2018-05-13T21:40:17.519Z,14.60
2018-05-13T21:42:46.111Z,13.53
2018-05-13T21:45:14.421Z,13.97
2018-05-13T21:47:42.717Z,14.13
2018-05-13T21:50:11.138Z,15.30
2018-05-13T21:52:40.634Z,14.20
2018-05-13T21:55:09.002Z,14.80
2018-05-13T21:57:37.421Z,14.80
2018-05-13T22:00:20.134Z,14.00
2018-05-13T22:02:49.113Z,13.57
2018-05-13T22:05:17.492Z,14.00
2018-05-13T22:07:46.465Z,15.97
2018-05-13T22:10:15.869Z,15.10
2018-05-13T22:12:44.398Z,14.30
2018-05-13T22:15:13.678Z,14.03
2018-05-13T22:17:42.427Z,14.70
2018-05-13T22:20:11.858Z,14.33
2018-05-13T22:22:41.030Z,14.30
2018-05-13T22:25:10.256Z,13.90
2018-05-13T22:27:38.810Z,14.70
2018-05-13T22:30:07.402Z,13.87
2018-05-13T22:32:35.486Z,14.30
2018-05-13T22:35:03.761Z,13.97
2018-05-13T22:37:32.244Z,14.50
2018-05-13T22:40:00.725Z,13.30
2018-05-13T22:42:29.262Z,14.50
2018-05-13T22:45:02.205Z,14.50
2018-05-13T22:47:31.338Z,13.70
2018-05-13T22:50:03.253Z,14.23
2018-05-13T22:52:32.248Z,13.90
2018-05-13T22:55:00.826Z,14.23
2018-05-13T22:57:29.433Z,14.63
2018-05-13T22:59:57.956Z,14.30
2018-05-13T23:02:26.380Z,14.90
2018-05-13T23:04:55.775Z,14.80
2018-05-13T23:07:24.062Z,15.43
2018-05-13T23:09:53.243Z,14.93
2018-05-13T23:12:21.948Z,14.03
2018-05-13T23:14:50.997Z,14.40
2018-05-13T23:17:19.472Z,14.87
2018-05-13T23:19:47.684Z,15.23
2018-05-13T23:22:27.508Z,14.13
2018-05-13T23:24:57.077Z,14.00
2018-05-13T23:27:25.621Z,14.77
2018-05-13T23:29:53.757Z,14.83
2018-05-13T23:32:22.975Z,14.93
2018-05-13T23:34:51.371Z,15.73
2018-05-13T23:37:20.024Z,15.03
2018-05-13T23:39:47.924Z,15.50
2018-05-13T23:42:17.080Z,14.50
2018-05-13T23:44:45.553Z,15.80
2018-05-13T23:47:14.137Z,14.80
2018-05-13T23:49:42.546Z,15.00
2018-05-13T23:52:10.827Z,15.07
2018-05-13T23:54:39.077Z,14.03
2018-05-13T23:57:07.452Z,14.90
2018-05-13T23:59:35.848Z,16.00
